createdAt,value
2018-07-22T00:01:18.712Z,19.10
2018-07-22T00:03:47.279Z,19.10
2018-07-22T00:06:15.908Z,19.00
2018-07-22T00:08:44.465Z,19.00
2018-07-22T00:11:13.097Z,19.10
2018-07-22T00:13:41.626Z,19.00
2018-07-22T00:16:10.254Z,19.00
2018-07-22T00:18:38.896Z,18.80
2018-07-22T00:21:07.459Z,18.90
2018-07-22T00:23:36.140Z,18.90
2018-07-22T00:26:04.703Z,18.90
2018-07-22T00:28:33.268Z,19.00
2018-07-22T00:31:01.828Z,18.90
2018-07-22T00:33:30.436Z,18.90
2018-07-22T00:35:58.962Z,18.90
2018-07-22T00:38:27.533Z,18.90
2018-07-22T00:40:56.075Z,18.90
2018-07-22T00:43:24.579Z,18.90
2018-07-22T00:45:53.134Z,19.00
2018-07-22T00:48:21.621Z,19.00
2018-07-22T00:50:50.131Z,19.00
2018-07-22T00:53:18.656Z,19.00
2018-07-22T00:55:47.197Z,19.00
2018-07-22T00:58:15.744Z,19.00
2018-07-22T01:00:44.420Z,19.00
2018-07-22T01:03:12.951Z,19.00
2018-07-22T01:05:41.524Z,19.10
2018-07-22T01:08:10.036Z,19.10
2018-07-22T01:10:38.607Z,19.10
2018-07-22T01:13:07.349Z,19.00
2018-07-22T01:15:36.335Z,19.10
2018-07-22T01:18:04.950Z,19.00
2018-07-22T01:20:33.544Z,19.00
2018-07-22T01:23:02.104Z,19.00
2018-07-22T01:25:30.726Z,19.00
2018-07-22T01:27:59.331Z,19.00
2018-07-22T01:30:27.987Z,18.90
2018-07-22T01:35:24.812Z,19.00
2018-07-22T01:37:53.343Z,19.00
2018-07-22T01:40:21.932Z,19.00
2018-07-22T01:42:50.425Z,18.90
2018-07-22T01:45:19.036Z,18.90
2018-07-22T01:47:47.545Z,18.90
2018-07-22T01:50:16.152Z,18.90
2018-07-22T01:52:44.727Z,18.90
2018-07-22T01:55:13.320Z,18.90
2018-07-22T01:57:41.877Z,18.90
2018-07-22T02:00:10.396Z,18.80
2018-07-22T02:02:38.992Z,18.90
2018-07-22T02:05:07.571Z,18.80
2018-07-22T02:07:36.223Z,18.90
2018-07-22T02:10:04.936Z,18.90
2018-07-22T02:12:33.672Z,18.90
2018-07-22T02:15:02.628Z,18.90
2018-07-22T02:17:31.580Z,18.90
2018-07-22T02:20:00.103Z,18.80
2018-07-22T02:22:28.665Z,18.90
2018-07-22T02:24:57.260Z,18.80
2018-07-22T02:27:25.847Z,18.80
2018-07-22T02:29:54.397Z,18.80
2018-07-22T02:34:51.160Z,18.80
2018-07-22T02:37:19.769Z,18.80
2018-07-22T02:39:48.338Z,18.80
2018-07-22T02:44:45.402Z,18.80
2018-07-22T02:47:14.001Z,18.80
2018-07-22T02:49:42.781Z,18.80
2018-07-22T02:52:11.349Z,18.80
2018-07-22T02:54:40.160Z,18.80
2018-07-22T02:57:10.021Z,18.80
2018-07-22T02:59:38.544Z,18.80
2018-07-22T03:02:07.299Z,18.90
2018-07-22T03:04:36.869Z,18.90
2018-07-22T03:07:05.507Z,18.90
2018-07-22T03:09:34.126Z,18.80
2018-07-22T03:12:02.753Z,18.80
2018-07-22T03:16:59.520Z,18.70
2018-07-22T03:19:28.084Z,18.80
2018-07-22T03:21:57.051Z,18.80
2018-07-22T03:24:25.570Z,18.80
2018-07-22T03:26:54.815Z,18.80
2018-07-22T03:29:23.395Z,18.80
2018-07-22T03:31:52.040Z,18.80
2018-07-22T03:34:20.608Z,18.80
2018-07-22T03:36:49.534Z,18.80
2018-07-22T03:39:18.161Z,18.80
2018-07-22T03:41:46.855Z,18.80
2018-07-22T03:44:15.392Z,18.80
2018-07-22T03:46:43.977Z,18.80
2018-07-22T03:49:12.831Z,18.90
2018-07-22T03:51:41.440Z,18.80
2018-07-22T03:54:10.025Z,18.90
2018-07-22T03:56:39.228Z,18.90
2018-07-22T03:59:07.773Z,18.80
2018-07-22T04:01:36.362Z,18.90
2018-07-22T04:04:05.002Z,18.90
2018-07-22T04:06:33.764Z,18.90
2018-07-22T04:09:03.177Z,18.90
2018-07-22T04:11:31.761Z,18.80
2018-07-22T04:14:00.336Z,18.90
2018-07-22T04:16:29.251Z,18.90
2018-07-22T04:18:57.791Z,18.90
2018-07-22T04:21:26.805Z,19.10
2018-07-22T04:23:55.324Z,19.10
2018-07-22T04:26:23.883Z,19.10
2018-07-22T04:28:52.521Z,19.10
2018-07-22T04:31:21.247Z,19.20
2018-07-22T04:33:49.953Z,19.20
2018-07-22T04:36:18.508Z,19.30
2018-07-22T04:38:47.127Z,19.30
2018-07-22T04:41:15.681Z,19.30
2018-07-22T04:43:44.260Z,19.30
2018-07-22T04:46:12.939Z,19.30
2018-07-22T04:48:41.518Z,19.40
2018-07-22T04:51:10.166Z,19.30
2018-07-22T04:53:38.844Z,19.40
2018-07-22T04:56:07.316Z,19.40
2018-07-22T04:58:35.845Z,19.40
2018-07-22T05:01:04.489Z,19.60
2018-07-22T05:03:33.008Z,19.60
2018-07-22T05:06:01.599Z,19.60
2018-07-22T05:08:30.167Z,19.70
2018-07-22T05:10:58.766Z,19.70
2018-07-22T05:13:27.272Z,19.70
2018-07-22T05:15:55.824Z,19.70
2018-07-22T05:20:52.536Z,19.70
2018-07-22T05:23:21.053Z,19.70
2018-07-22T05:25:49.596Z,19.80
2018-07-22T05:28:18.171Z,19.80
2018-07-22T05:30:46.687Z,19.90
2018-07-22T05:33:15.219Z,19.90
2018-07-22T05:35:43.774Z,19.90
2018-07-22T05:38:12.288Z,19.90
2018-07-22T05:40:40.862Z,19.70
2018-07-22T05:43:09.384Z,19.80
2018-07-22T05:45:37.996Z,19.80
2018-07-22T05:48:06.541Z,19.90
2018-07-22T05:50:35.148Z,19.90
2018-07-22T05:53:03.681Z,20.00
2018-07-22T05:55:32.268Z,20.10
2018-07-22T05:58:00.769Z,20.20
2018-07-22T06:00:29.353Z,20.30
2018-07-22T06:02:57.849Z,20.40
2018-07-22T06:05:26.416Z,20.50
2018-07-22T06:07:54.925Z,20.70
2018-07-22T06:10:23.519Z,20.90
2018-07-22T06:12:52.272Z,21.20
2018-07-22T06:15:20.844Z,21.70
2018-07-22T06:17:49.384Z,22.30
2018-07-22T06:20:18.035Z,23.20
2018-07-22T06:22:46.581Z,23.60
2018-07-22T06:25:15.184Z,24.20
2018-07-22T06:27:43.751Z,24.60
2018-07-22T06:30:12.469Z,24.60
2018-07-22T06:32:41.024Z,24.40
2018-07-22T06:35:09.597Z,24.50
2018-07-22T06:37:38.103Z,24.60
2018-07-22T06:40:06.700Z,24.50
2018-07-22T06:42:35.261Z,24.50
2018-07-22T06:45:03.908Z,24.60
2018-07-22T06:47:32.439Z,24.90
2018-07-22T06:50:00.988Z,25.00
2018-07-22T06:52:29.487Z,24.90
2018-07-22T06:54:58.037Z,24.40
2018-07-22T06:57:26.597Z,24.00
2018-07-22T07:02:23.334Z,24.00
2018-07-22T07:04:51.992Z,23.70
2018-07-22T07:07:20.508Z,23.60
2018-07-22T07:09:49.081Z,23.50
2018-07-22T07:12:17.617Z,23.40
2018-07-22T07:14:46.159Z,23.20
2018-07-22T07:17:14.666Z,23.20
2018-07-22T07:19:43.169Z,23.40
2018-07-22T07:22:11.677Z,23.50
2018-07-22T07:24:40.184Z,23.60
2018-07-22T07:27:08.810Z,23.60
2018-07-22T07:29:37.400Z,23.60
2018-07-22T07:32:06.457Z,23.60
2018-07-22T07:34:35.000Z,23.60
2018-07-22T07:37:03.569Z,23.70
2018-07-22T07:39:32.060Z,24.10
2018-07-22T07:42:00.564Z,24.40
2018-07-22T07:44:29.043Z,24.70
2018-07-22T07:46:57.580Z,25.00
2018-07-22T07:49:26.086Z,25.40
2018-07-22T07:51:54.744Z,26.10
2018-07-22T07:54:23.293Z,26.40
2018-07-22T07:56:51.788Z,27.20
2018-07-22T07:59:20.395Z,28.10
2018-07-22T08:01:48.896Z,28.00
2018-07-22T08:04:17.548Z,27.90
2018-07-22T08:09:14.370Z,27.20
2018-07-22T08:11:42.922Z,27.00
2018-07-22T08:14:11.398Z,26.80
2018-07-22T08:16:39.990Z,26.20
2018-07-22T08:19:08.516Z,25.90
2018-07-22T08:21:37.177Z,25.60
2018-07-22T08:24:06.019Z,25.30
2018-07-22T08:26:34.589Z,25.10
2018-07-22T08:29:25.962Z,25.10
2018-07-22T08:34:22.879Z,25.00
2018-07-22T08:36:51.540Z,24.80
2018-07-22T08:39:22.412Z,24.70
2018-07-22T08:41:51.660Z,24.50
2018-07-22T08:44:20.281Z,24.50
2018-07-22T08:46:48.876Z,24.20
2018-07-22T08:49:17.515Z,24.20
2018-07-22T08:51:46.050Z,23.90
2018-07-22T08:54:14.841Z,23.80
2018-07-22T08:56:43.415Z,23.70
2018-07-22T08:59:12.062Z,23.40
2018-07-22T09:01:40.634Z,23.20
2018-07-22T09:04:09.224Z,23.20
2018-07-22T09:06:37.832Z,23.10
2018-07-22T09:09:08.365Z,23.00
2018-07-22T09:11:37.082Z,23.00
2018-07-22T09:14:06.064Z,23.10
2018-07-22T09:16:34.547Z,23.20
2018-07-22T09:19:03.102Z,23.20
2018-07-22T09:21:31.720Z,23.30
2018-07-22T09:24:00.295Z,23.40
2018-07-22T09:26:28.906Z,23.70
2018-07-22T09:28:57.432Z,24.00
2018-07-22T09:31:25.990Z,24.00
2018-07-22T09:33:54.535Z,24.40
2018-07-22T09:36:23.157Z,24.60
2018-07-22T09:38:51.740Z,24.80
2018-07-22T09:41:20.325Z,25.00
2018-07-22T09:43:49.018Z,25.20
2018-07-22T09:46:17.507Z,25.70
2018-07-22T09:48:46.108Z,25.90
2018-07-22T09:51:14.675Z,26.20
2018-07-22T09:53:43.333Z,26.20
2018-07-22T09:56:11.900Z,26.40
2018-07-22T09:58:40.506Z,26.70
2018-07-22T10:01:09.128Z,27.10
2018-07-22T10:03:37.981Z,27.10
2018-07-22T10:06:06.660Z,27.20
2018-07-22T10:08:35.642Z,27.00
2018-07-22T10:11:04.353Z,27.00
2018-07-22T10:13:32.827Z,27.10
2018-07-22T10:16:01.617Z,27.00
2018-07-22T10:18:31.053Z,27.20
2018-07-22T10:20:59.997Z,27.40
2018-07-22T10:23:28.653Z,27.80
2018-07-22T10:25:57.192Z,28.40
2018-07-22T10:28:25.732Z,29.00
2018-07-22T10:30:54.307Z,29.00
2018-07-22T10:33:22.896Z,29.00
2018-07-22T10:35:51.468Z,28.80
2018-07-22T10:38:19.951Z,29.00
2018-07-22T10:40:48.575Z,29.10
2018-07-22T10:43:17.101Z,29.30
2018-07-22T10:45:45.595Z,29.30
2018-07-22T10:48:14.268Z,29.80
2018-07-22T10:50:42.800Z,30.10
2018-07-22T10:53:11.393Z,30.40
2018-07-22T10:55:39.939Z,30.10
2018-07-22T10:58:08.463Z,30.00
2018-07-22T11:00:37.061Z,29.80
2018-07-22T11:03:06.943Z,29.80
2018-07-22T11:05:35.508Z,29.50
2018-07-22T11:08:04.077Z,29.50
2018-07-22T11:10:32.635Z,29.50
2018-07-22T11:13:01.194Z,29.60
2018-07-22T11:15:29.820Z,30.10
2018-07-22T11:17:58.383Z,30.60
2018-07-22T11:20:26.962Z,30.80
2018-07-22T11:22:55.544Z,31.00
2018-07-22T11:25:24.133Z,30.90
2018-07-22T11:27:52.735Z,30.90
2018-07-22T11:30:21.298Z,31.40
2018-07-22T11:32:49.855Z,31.70
2018-07-22T11:35:18.403Z,31.60
2018-07-22T11:37:47.732Z,31.40
2018-07-22T11:40:16.377Z,31.30
2018-07-22T11:42:44.903Z,31.20
2018-07-22T11:45:13.475Z,31.10
2018-07-22T11:47:42.027Z,31.00
2018-07-22T11:50:10.554Z,30.50
2018-07-22T11:52:39.127Z,30.00
2018-07-22T11:55:07.709Z,29.80
2018-07-22T11:57:36.336Z,29.80
2018-07-22T12:00:05.691Z,29.40
2018-07-22T12:02:34.214Z,29.50
2018-07-22T12:05:02.799Z,29.90
2018-07-22T12:07:31.416Z,29.90
2018-07-22T12:09:59.917Z,29.90
2018-07-22T12:12:28.523Z,29.70
2018-07-22T12:14:57.120Z,29.70
2018-07-22T12:17:25.654Z,29.70
2018-07-22T12:19:54.239Z,29.60
2018-07-22T12:22:22.794Z,29.70
2018-07-22T12:24:51.359Z,29.50
2018-07-22T12:27:19.881Z,29.40
2018-07-22T12:29:48.429Z,29.00
2018-07-22T12:32:16.959Z,29.00
2018-07-22T12:34:45.472Z,29.00
2018-07-22T12:37:14.048Z,29.20
2018-07-22T12:39:42.663Z,29.20
2018-07-22T12:42:11.536Z,29.00
2018-07-22T12:44:40.109Z,29.10
2018-07-22T12:47:08.751Z,29.10
2018-07-22T12:49:37.324Z,28.40
2018-07-22T12:52:05.932Z,28.30
2018-07-22T12:54:34.498Z,28.70
2018-07-22T12:57:03.095Z,29.10
2018-07-22T12:59:31.664Z,29.10
2018-07-22T13:02:00.214Z,29.10
2018-07-22T13:04:28.820Z,28.90
2018-07-22T13:06:57.452Z,28.70
2018-07-22T13:09:25.964Z,28.70
2018-07-22T13:11:54.473Z,28.10
2018-07-22T13:14:23.124Z,28.00
2018-07-22T13:16:51.647Z,28.10
2018-07-22T13:19:20.242Z,28.30
2018-07-22T13:21:48.932Z,28.10
2018-07-22T13:24:17.481Z,27.90
2018-07-22T13:26:46.055Z,27.70
2018-07-22T13:29:14.549Z,27.70
2018-07-22T13:31:43.201Z,27.80
2018-07-22T13:34:11.727Z,27.70
2018-07-22T13:36:40.276Z,27.80
2018-07-22T13:39:10.791Z,28.10
2018-07-22T13:41:40.046Z,28.10
2018-07-22T13:44:08.704Z,28.40
2018-07-22T13:46:37.617Z,28.30
2018-07-22T13:49:06.543Z,28.10
2018-07-22T13:51:35.364Z,28.30
2018-07-22T13:54:04.286Z,28.40
2018-07-22T13:56:32.903Z,28.20
2018-07-22T13:59:01.455Z,27.90
2018-07-22T14:01:30.094Z,27.50
2018-07-22T14:03:58.629Z,27.40
2018-07-22T14:06:27.182Z,27.40
2018-07-22T14:08:55.740Z,27.10
2018-07-22T14:11:24.277Z,27.20
2018-07-22T14:13:52.956Z,27.40
2018-07-22T14:16:21.487Z,27.40
2018-07-22T14:18:50.128Z,27.20
2018-07-22T14:21:18.731Z,27.30
2018-07-22T14:23:47.332Z,27.30
2018-07-22T14:28:44.073Z,26.80
2018-07-22T14:31:12.650Z,26.70
2018-07-22T14:33:41.163Z,26.70
2018-07-22T14:36:09.726Z,26.90
2018-07-22T14:38:38.268Z,27.10
2018-07-22T14:41:06.882Z,26.90
2018-07-22T14:43:35.400Z,26.70
2018-07-22T14:46:04.075Z,26.50
2018-07-22T14:48:32.659Z,26.70
2018-07-22T14:51:01.232Z,27.00
2018-07-22T14:53:29.931Z,27.20
2018-07-22T14:55:58.529Z,27.70
2018-07-22T14:58:27.115Z,28.10
2018-07-22T15:00:55.670Z,28.40
2018-07-22T15:03:24.176Z,28.60
2018-07-22T15:05:52.739Z,28.80
2018-07-22T15:08:21.351Z,28.70
2018-07-22T15:10:49.948Z,28.50
2018-07-22T15:13:18.544Z,28.30
2018-07-22T15:15:47.140Z,28.30
2018-07-22T15:18:15.687Z,28.00
2018-07-22T15:20:44.274Z,27.50
2018-07-22T15:23:12.853Z,27.40
2018-07-22T15:25:41.416Z,27.40
2018-07-22T15:28:10.064Z,27.60
2018-07-22T15:30:38.623Z,27.40
2018-07-22T15:33:07.115Z,27.10
2018-07-22T15:35:35.688Z,26.90
2018-07-22T15:38:04.296Z,26.80
2018-07-22T15:40:32.823Z,26.90
2018-07-22T15:43:01.357Z,26.80
2018-07-22T15:45:29.946Z,26.90
2018-07-22T15:47:58.496Z,26.80
2018-07-22T15:50:27.033Z,26.70
2018-07-22T15:52:55.684Z,26.60
2018-07-22T15:55:24.465Z,26.40
2018-07-22T15:57:52.844Z,26.40
2018-07-22T16:00:21.428Z,26.60
2018-07-22T16:02:50.016Z,26.80
2018-07-22T16:05:18.648Z,27.00
2018-07-22T16:07:47.778Z,27.40
2018-07-22T16:10:16.308Z,28.10
2018-07-22T16:12:44.880Z,28.60
2018-07-22T16:15:13.444Z,29.00
2018-07-22T16:17:42.013Z,29.30
2018-07-22T16:20:10.565Z,29.50
2018-07-22T16:22:39.495Z,30.00
2018-07-22T16:25:08.036Z,30.40
2018-07-22T16:30:05.792Z,29.60
2018-07-22T16:32:34.327Z,29.30
2018-07-22T16:35:02.888Z,28.80
2018-07-22T16:37:31.467Z,28.10
2018-07-22T16:39:59.975Z,27.60
2018-07-22T16:42:28.556Z,27.00
2018-07-22T16:44:57.156Z,26.40
2018-07-22T16:47:25.808Z,25.90
2018-07-22T16:49:54.368Z,25.50
2018-07-22T16:52:22.957Z,24.70
2018-07-22T16:54:51.581Z,23.70
2018-07-22T16:57:20.205Z,23.20
2018-07-22T16:59:48.902Z,22.90
2018-07-22T17:02:17.528Z,22.40
2018-07-22T17:04:46.051Z,22.20
2018-07-22T17:07:15.395Z,22.00
2018-07-22T17:09:43.889Z,21.80
2018-07-22T17:12:12.517Z,21.60
2018-07-22T17:14:41.108Z,21.40
2018-07-22T17:17:09.740Z,21.20
2018-07-22T17:19:38.428Z,21.20
2018-07-22T17:22:07.064Z,21.20
2018-07-22T17:24:35.675Z,21.20
2018-07-22T17:27:04.429Z,21.20
2018-07-22T17:29:32.999Z,21.20
2018-07-22T17:32:01.628Z,21.30
2018-07-22T17:34:30.222Z,21.40
2018-07-22T17:36:58.852Z,21.50
2018-07-22T17:39:27.414Z,21.50
2018-07-22T17:41:56.040Z,21.50
2018-07-22T17:44:24.627Z,21.50
2018-07-22T17:46:53.652Z,21.50
2018-07-22T17:49:22.292Z,21.50
2018-07-22T17:51:51.197Z,21.60
2018-07-22T17:54:19.817Z,21.60
2018-07-22T17:56:48.676Z,21.60
2018-07-22T17:59:17.327Z,21.60
2018-07-22T18:01:45.891Z,21.50
2018-07-22T18:04:21.127Z,21.60
2018-07-22T18:06:49.744Z,21.50
2018-07-22T18:09:18.399Z,21.50
2018-07-22T18:11:47.316Z,21.40
2018-07-22T18:14:16.160Z,21.30
2018-07-22T18:16:44.749Z,21.20
2018-07-22T18:19:13.348Z,21.10
2018-07-22T18:21:42.045Z,21.00
2018-07-22T18:24:10.972Z,20.80
2018-07-22T18:26:40.228Z,20.80
2018-07-22T18:29:08.816Z,20.60
2018-07-22T18:31:37.619Z,20.50
2018-07-22T18:34:06.256Z,20.50
2018-07-22T18:36:34.984Z,20.50
2018-07-22T18:39:05.011Z,20.50
2018-07-22T18:41:33.655Z,20.50
2018-07-22T18:44:02.487Z,20.50
2018-07-22T18:46:31.295Z,20.40
2018-07-22T18:49:00.154Z,20.30
2018-07-22T18:51:28.796Z,20.30
2018-07-22T18:53:57.601Z,20.30
2018-07-22T18:56:26.477Z,20.20
2018-07-22T19:01:24.076Z,20.20
2018-07-22T19:03:52.953Z,20.20
2018-07-22T19:06:21.762Z,20.30
2018-07-22T19:08:50.662Z,20.30
2018-07-22T19:11:19.528Z,20.30
2018-07-22T19:13:48.363Z,20.30
2018-07-22T19:16:17.416Z,20.30
2018-07-22T19:18:46.257Z,20.30
2018-07-22T19:21:15.107Z,20.30
2018-07-22T19:23:44.012Z,20.40
2018-07-22T19:26:12.913Z,20.40
2018-07-22T19:28:41.734Z,20.40
2018-07-22T19:31:10.585Z,20.50
2018-07-22T19:33:39.394Z,20.50
2018-07-22T19:36:08.228Z,20.50
2018-07-22T19:38:37.084Z,20.50
2018-07-22T19:41:06.787Z,20.40
2018-07-22T19:43:35.720Z,20.50
2018-07-22T19:46:04.533Z,20.50
2018-07-22T19:48:33.346Z,20.60
2018-07-22T19:51:02.199Z,20.60
2018-07-22T19:53:31.156Z,20.60
2018-07-22T19:56:00.033Z,20.70
2018-07-22T19:58:28.863Z,20.60
2018-07-22T20:00:57.730Z,20.70
2018-07-22T20:03:26.628Z,20.70
2018-07-22T20:05:55.515Z,20.60
2018-07-22T20:08:24.392Z,20.60
2018-07-22T20:10:53.245Z,20.50
2018-07-22T20:13:22.138Z,20.50
2018-07-22T20:18:44.750Z,20.50
2018-07-22T20:21:13.673Z,20.40
2018-07-22T20:23:42.676Z,20.40
2018-07-22T20:26:11.728Z,20.40
2018-07-22T20:28:40.393Z,20.40
2018-07-22T20:31:09.219Z,20.30
2018-07-22T20:33:37.874Z,20.30
2018-07-22T20:36:06.599Z,20.30
2018-07-22T20:38:35.416Z,20.30
2018-07-22T20:41:04.599Z,20.20
2018-07-22T20:43:33.245Z,20.10
2018-07-22T20:46:01.852Z,20.10
2018-07-22T20:48:30.442Z,20.00
2018-07-22T20:53:27.415Z,20.00
2018-07-22T20:55:55.996Z,20.00
2018-07-22T21:00:52.920Z,20.00
2018-07-22T21:03:21.674Z,20.10
2018-07-22T21:05:50.250Z,20.10
2018-07-22T21:08:18.830Z,20.20
2018-07-22T21:10:47.400Z,20.10
2018-07-22T21:13:20.935Z,20.00
2018-07-22T21:15:49.720Z,20.10
2018-07-22T21:18:18.269Z,20.00
2018-07-22T21:20:46.820Z,20.00
2018-07-22T21:23:15.939Z,20.00
2018-07-22T21:25:44.501Z,19.90
2018-07-22T21:28:13.037Z,19.90
2018-07-22T21:30:42.025Z,19.90
2018-07-22T21:33:10.625Z,20.00
2018-07-22T21:35:39.180Z,20.00
2018-07-22T21:38:07.716Z,20.00
2018-07-22T21:40:36.281Z,20.00
2018-07-22T21:43:04.831Z,20.10
2018-07-22T21:45:33.440Z,20.10
2018-07-22T21:48:01.983Z,20.10
2018-07-22T21:50:30.567Z,20.10
2018-07-22T21:52:59.133Z,20.10
2018-07-22T21:55:27.673Z,20.10
2018-07-22T21:57:56.200Z,20.10
2018-07-22T22:00:57.366Z,20.00
2018-07-22T22:03:25.864Z,20.00
2018-07-22T22:05:54.452Z,20.00
2018-07-22T22:08:22.979Z,20.00
2018-07-22T22:10:51.540Z,20.00
2018-07-22T22:13:20.118Z,20.10
2018-07-22T22:15:48.755Z,20.10
2018-07-22T22:18:17.340Z,20.10
2018-07-22T22:20:45.881Z,20.10
2018-07-22T22:23:14.436Z,20.10
2018-07-22T22:25:43.005Z,20.10
2018-07-22T22:28:11.616Z,20.00
2018-07-22T22:30:40.174Z,20.10
2018-07-22T22:33:08.693Z,20.10
2018-07-22T22:35:37.234Z,20.10
2018-07-22T22:38:05.800Z,20.20
2018-07-22T22:40:35.531Z,20.20
2018-07-22T22:43:04.102Z,20.20
2018-07-22T22:45:32.648Z,20.10
2018-07-22T22:48:01.202Z,20.10
2018-07-22T22:50:30.184Z,20.10
2018-07-22T22:52:58.704Z,20.10
2018-07-22T22:55:27.332Z,20.10
2018-07-22T22:58:07.062Z,20.10
2018-07-22T23:00:35.634Z,20.10
2018-07-22T23:03:04.224Z,20.10
2018-07-22T23:05:32.793Z,20.10
2018-07-22T23:08:01.336Z,20.20
2018-07-22T23:10:29.841Z,20.20
2018-07-22T23:12:58.419Z,20.20
2018-07-22T23:15:27.425Z,20.20
2018-07-22T23:17:55.958Z,20.20
2018-07-22T23:22:52.656Z,20.20
2018-07-22T23:25:21.164Z,20.30
2018-07-22T23:27:49.692Z,20.20
2018-07-22T23:30:18.236Z,20.20
2018-07-22T23:32:46.744Z,20.10
2018-07-22T23:35:15.378Z,20.10
2018-07-22T23:37:43.932Z,20.10
2018-07-22T23:40:12.407Z,20.00
2018-07-22T23:42:40.976Z,20.00
2018-07-22T23:45:09.483Z,20.00
2018-07-22T23:47:38.000Z,20.00
2018-07-22T23:50:06.644Z,20.00
2018-07-22T23:52:35.235Z,20.00
2018-07-22T23:55:03.800Z,19.90
2018-07-22T23:57:32.319Z,19.80
